Aqualoyalty — A8ZC6 — position and weather

sailwx.info

Track history (hours):
 
Tides and Currents Weather Stations Pressure Air Temp Water Temp Dewpoint Dewpoint Depression Visibility Wind Speed Wind Dir Waves Ship Positions

Aqualoyalty

Last reported at 2014-Dec-21 17:06 UTC. Time now 2014-Dec-21 23:11 UTC.
Position N 32°06' W 117°38'.

Length 249 m; draft 8.3 m.

Type: Ship. MMSI: 636015177.

Date/timePositionNaut miles runAvg speedWind from/ knotsBaromVisibWave heightAir tempDewpointWater temp
2014-Dec-21 17:06N 32°06' W 117°38'611.5
2014-Dec-21 16:33N 32°11' W 117°40'1111.3
2014-Dec-21 15:33N 32°22' W 117°44'9 9.0
2014-Dec-21 14:33N 32°31' W 117°47'9 9.3
2014-Dec-21 13:34N 32°40' W 117°50'1110.9
2014-Dec-21 12:33N 32°50' W 117°54'1110.9
2014-Dec-21 11:33N 33°00' W 117°58'1110.8
2014-Dec-21 10:33N 33°11' W 118°03'1110.9
2014-Dec-21 09:33N 33°21' W 118°07'1110.6
2014-Dec-21 08:33N 33°31' W 118°11'13 1.6
2014-Dec-21 00:20N 33°44' W 118°12'2 2.3
2014-Dec-20 23:33N 33°45' W 118°13'1 0.6
2014-Dec-20 22:11N 33°46' W 118°13'0 0.0
2014-Dec-20 20:26N 33°46' W 118°13'0 0.0
2014-Dec-20 18:32N 33°46' W 118°13'0 0.0
2014-Dec-20 17:32N 33°46' W 118°13'0 0.0
2014-Dec-20 16:32N 33°46' W 118°13'0 0.0
2014-Dec-20 15:32N 33°46' W 118°13'0 0.0
2014-Dec-20 14:29N 33°46' W 118°13'0 0.0
2014-Dec-20 13:26N 33°46' W 118°13'0 0.0
2014-Dec-20 12:29N 33°46' W 118°13'0 0.0
2014-Dec-20 11:23N 33°46' W 118°13'0 0.0
2014-Dec-20 10:26N 33°46' W 118°13'0 0.0
2014-Dec-20 08:32N 33°46' W 118°13'0 0.0
2014-Dec-20 07:32N 33°46' W 118°13'0 0.0
2014-Dec-20 06:26N 33°46' W 118°13'0 0.0
2014-Dec-20 05:32N 33°46' W 118°13'0 0.0
2014-Dec-20 04:26N 33°46' W 118°13'0 0.0
2014-Dec-20 03:26N 33°46' W 118°13'0 0.0
2014-Dec-20 02:20N 33°46' W 118°13'0 0.0
2014-Dec-20 01:32N 33°46' W 118°13'0 0.0
2014-Dec-19 16:11N 33°46' W 118°13'0 0.0
2014-Dec-19 15:32N 33°46' W 118°13'0 0.0
2014-Dec-19 08:14N 33°46' W 118°13'0 0.0
2014-Dec-19 03:26N 33°46' W 118°13'0 0.0
2014-Dec-19 02:26N 33°46' W 118°13'0 0.0
2014-Dec-19 01:20N 33°46' W 118°13'0 0.0
2014-Dec-19 00:26N 33°46' W 118°13'0 0.0
2014-Dec-18 23:32N 33°46' W 118°13'0 0.0
2014-Dec-18 22:14N 33°46' W 118°13'0 0.0
2014-Dec-18 21:08N 33°46' W 118°13'0 0.0
2014-Dec-18 20:14N 33°46' W 118°13'0 0.0
2014-Dec-18 10:26N 33°46' W 118°13'0 0.0
2014-Dec-18 09:20N 33°46' W 118°13'0 0.0
2014-Dec-18 08:17N 33°46' W 118°13'0 0.0
2014-Dec-18 07:32N 33°46' W 118°13'0 0.0
2014-Dec-18 06:29N 33°46' W 118°13'0 0.0
2014-Dec-18 05:32N 33°46' W 118°13'0 0.0
2014-Dec-18 04:32N 33°46' W 118°13'0 0.0
2014-Dec-18 03:14N 33°46' W 118°13'0 0.0
2014-Dec-18 02:32N 33°46' W 118°13'0 0.0
2014-Dec-18 01:32N 33°46' W 118°13'0 0.0
2014-Dec-18 00:26N 33°46' W 118°13'0 0.0
2014-Dec-17 23:32N 33°46' W 118°13'0 0.1
2014-Dec-17 22:33N 33°46' W 118°13'3 3.2
2014-Dec-17 21:29N 33°44' W 118°10'0 0.0
2014-Dec-17 20:29N 33°44' W 118°10'0 0.1
2014-Dec-17 19:32N 33°44' W 118°10'0 0.1
2014-Dec-17 18:32N 33°44' W 118°10'0 0.1
2014-Dec-17 17:32N 33°44' W 118°10'0 0.1
2014-Dec-17 16:32N 33°44' W 118°10'0 0.1
2014-Dec-17 15:32N 33°44' W 118°10'0 0.1
2014-Dec-17 14:32N 33°44' W 118°10'0 0.1
2014-Dec-17 13:14N 33°44' W 118°10'0 0.1
2014-Dec-17 12:29N 33°44' W 118°10'0 0.0
2014-Dec-17 11:32N 33°44' W 118°10'0 0.0
2014-Dec-17 10:26N 33°44' W 118°10'0 0.0
2014-Dec-17 09:32N 33°44' W 118°10'0 0.1
2014-Dec-17 08:26N 33°44' W 118°10'0 0.1
2014-Dec-17 07:29N 33°44' W 118°10'0 0.0
2014-Dec-17 06:32N 33°44' W 118°10'0 0.1
2014-Dec-17 05:32N 33°44' W 118°10'0 0.0
2014-Dec-17 04:32N 33°44' W 118°10'0 0.1
2014-Dec-17 03:20N 33°44' W 118°10'0 0.0
2014-Dec-17 02:32N 33°44' W 118°10'0 0.0
2014-Dec-17 01:32N 33°44' W 118°10'0 0.0
2014-Dec-17 00:14N 33°44' W 118°10'0 0.0
2014-Dec-16 23:32N 33°44' W 118°10'0 0.0
2014-Dec-16 21:29N 33°44' W 118°10'0 0.0
2014-Dec-16 20:32N 33°44' W 118°10'0 0.0
2014-Dec-16 19:32N 33°44' W 118°10'0 0.1
2014-Dec-16 18:32N 33°44' W 118°10'0 0.0
2014-Dec-16 17:32N 33°44' W 118°10'0 0.1
2014-Dec-16 16:32N 33°44' W 118°10'0 0.0
2014-Dec-16 15:32N 33°44' W 118°10'0 0.1
2014-Dec-16 14:23N 33°44' W 118°10'0 0.0
2014-Dec-16 13:32N 33°44' W 118°10'0 0.0
2014-Dec-16 12:29N 33°44' W 118°10'0 0.0
2014-Dec-16 11:32N 33°44' W 118°10'0 0.1
2014-Dec-16 10:32N 33°44' W 118°10'0 0.0
2014-Dec-16 09:32N 33°44' W 118°10'0 0.0
2014-Dec-16 08:32N 33°44' W 118°10'0 0.1
2014-Dec-16 07:32N 33°44' W 118°10'0 0.1
2014-Dec-16 06:32N 33°44' W 118°10'0 0.0
2014-Dec-16 01:05N 33°44' W 118°10'0 0.0
2014-Dec-15 23:17N 33°44' W 118°10'0 0.1
2014-Dec-15 22:29N 33°44' W 118°10'0 0.0
2014-Dec-15 21:20N 33°44' W 118°10'0 0.1
2014-Dec-15 20:32N 33°44' W 118°10'0 0.0
2014-Dec-15 19:29N 33°44' W 118°10'0 0.1
2014-Dec-15 18:14N 33°44' W 118°10'0 0.0
2014-Dec-15 17:32N 33°44' W 118°10'0 0.0
2014-Dec-15 16:32N 33°44' W 118°10'0 0.1
2014-Dec-15 15:26N 33°44' W 118°10'0 0.1
2014-Dec-15 14:20N 33°44' W 118°10'0 0.0
2014-Dec-15 13:32N 33°44' W 118°10'0 0.0
2014-Dec-15 12:23N 33°44' W 118°10'0 0.1
2014-Dec-15 11:32N 33°44' W 118°10'0 0.0
2014-Dec-15 10:32N 33°44' W 118°10'0 0.0
2014-Dec-15 09:26N 33°44' W 118°10'0 0.0
2014-Dec-15 08:32N 33°44' W 118°10'0 0.1
2014-Dec-15 07:32N 33°44' W 118°10'0 0.1
2014-Dec-15 06:32N 33°44' W 118°10'0 0.0
2014-Dec-15 05:29N 33°44' W 118°10'0 0.0
2014-Dec-15 04:32N 33°44' W 118°10'0 0.0
2014-Dec-15 03:32N 33°44' W 118°10'0 0.0
2014-Dec-15 02:32N 33°44' W 118°10'0 0.0
2014-Dec-15 01:32N 33°44' W 118°10'0 0.0
2014-Dec-15 00:32N 33°44' W 118°10'0 0.0
2014-Dec-14 23:32N 33°44' W 118°10'0 0.0
2014-Dec-14 22:26N 33°44' W 118°10'0 0.0
2014-Dec-14 21:32N 33°44' W 118°10'0 0.0
2014-Dec-14 20:32N 33°44' W 118°10'0 0.1
2014-Dec-14 19:23N 33°44' W 118°10'0 0.1
2014-Dec-14 18:32N 33°44' W 118°10'0 0.1
2014-Dec-14 17:32N 33°44' W 118°10'0 0.1
2014-Dec-14 16:32N 33°44' W 118°10'0 0.0
2014-Dec-14 15:32N 33°44' W 118°10'0 0.1
2014-Dec-14 14:32N 33°44' W 118°10'0 0.0
2014-Dec-14 13:32N 33°44' W 118°10'0 0.0
2014-Dec-14 12:32N 33°44' W 118°10'0 0.0
2014-Dec-14 11:32N 33°44' W 118°10'0 0.0
2014-Dec-14 10:32N 33°44' W 118°10'0 0.0
2014-Dec-14 09:32N 33°44' W 118°10'0 0.0
2014-Dec-14 08:32N 33°44' W 118°10'0 0.1
2014-Dec-14 07:32N 33°44' W 118°10'0 0.1
2014-Dec-14 06:20N 33°44' W 118°10'0 0.1
2014-Dec-14 05:32N 33°44' W 118°10'0 0.1
2014-Dec-14 04:29N 33°44' W 118°10'0 0.0
2014-Dec-14 03:29N 33°44' W 118°10'0 0.0
2014-Dec-14 02:32N 33°44' W 118°10'0 0.0
2014-Dec-14 01:32N 33°44' W 118°10'0 0.0
2014-Dec-14 00:29N 33°44' W 118°10'0 0.0
2014-Dec-13 23:32N 33°44' W 118°10'0 0.0
2014-Dec-13 22:32N 33°44' W 118°10'0 0.0
2014-Dec-13 21:32N 33°44' W 118°10'0 0.0
2014-Dec-13 20:32N 33°44' W 118°10'0 0.0
2014-Dec-13 19:32N 33°44' W 118°10'0 0.0
2014-Dec-13 18:32N 33°44' W 118°10'0 0.0
2014-Dec-13 17:32N 33°44' W 118°10'0 0.0
2014-Dec-13 16:26N 33°44' W 118°10'0 0.0
2014-Dec-13 15:29N 33°44' W 118°10'0 0.1
2014-Dec-13 14:32N 33°44' W 118°10'0 0.0
2014-Dec-13 13:32N 33°44' W 118°10'0 0.0
2014-Dec-13 12:29N 33°44' W 118°10'0 0.0
2014-Dec-13 11:32N 33°44' W 118°10'0 0.1
2014-Dec-13 10:32N 33°44' W 118°10'0 0.0
2014-Dec-13 09:32N 33°44' W 118°10'0 0.0
2014-Dec-13 08:32N 33°44' W 118°10'0 0.0
2014-Dec-13 07:32N 33°44' W 118°10'0 0.0
2014-Dec-13 06:32N 33°44' W 118°10'0 0.0
2014-Dec-13 05:32N 33°44' W 118°10'0 0.0
2014-Dec-13 04:32N 33°44' W 118°10'0 0.0
2014-Dec-13 03:29N 33°44' W 118°10'0 0.0
2014-Dec-13 02:32N 33°44' W 118°10'0 0.0
2014-Dec-13 01:32N 33°44' W 118°10'0 0.0
2014-Dec-13 00:32N 33°44' W 118°10'0 0.0
2014-Dec-12 23:32N 33°44' W 118°10'0 0.0
2014-Dec-12 22:32N 33°44' W 118°10'0 0.0
2014-Dec-12 21:29N 33°44' W 118°10'0 0.0
2014-Dec-12 20:32N 33°44' W 118°10'0 0.0
2014-Dec-12 19:29N 33°44' W 118°10'0 0.2
2014-Dec-12 18:32N 33°44' W 118°10'0 0.1
2014-Dec-12 17:20N 33°44' W 118°10'0 0.0
2014-Dec-12 16:32N 33°44' W 118°10'0 0.1
2014-Dec-12 15:08N 33°44' W 118°10'0 0.1
2014-Dec-12 14:32N 33°44' W 118°10'0 0.1
2014-Dec-12 13:32N 33°44' W 118°10'0 0.0
2014-Dec-12 12:29N 33°44' W 118°10'0 0.2
2014-Dec-12 11:17N 33°44' W 118°10'0 0.0
2014-Dec-12 10:29N 33°44' W 118°10'0 0.0
2014-Dec-12 09:29N 33°44' W 118°10'0 0.0
2014-Dec-12 08:20N 33°44' W 118°10'0 0.0
2014-Dec-12 06:32N 33°44' W 118°10'0 0.0
2014-Dec-12 05:32N 33°44' W 118°10'0 0.1
2014-Dec-12 04:32N 33°44' W 118°10'0 0.1
2014-Dec-12 03:32N 33°44' W 118°10'0 0.1
2014-Dec-12 02:32N 33°44' W 118°10'0 0.0
2014-Dec-12 01:23N 33°44' W 118°10'0 0.1
2014-Dec-12 00:32N 33°44' W 118°10'0 0.0
2014-Dec-11 23:29N 33°44' W 118°10'0 0.0
2014-Dec-11 21:29N 33°44' W 118°10'0 0.0
2014-Dec-11 20:29N 33°44' W 118°10'0 0.0
2014-Dec-11 18:32N 33°44' W 118°10'0 0.0
2014-Dec-11 17:32N 33°44' W 118°10'  
Track history (hours):
 
Tides and Currents Weather Stations Pressure Air Temp Water Temp Dewpoint Dewpoint Depression Visibility Wind Speed Wind Dir Waves Ship Positions

Aqualoyalty

Last reported at 2014-Dec-21 17:06 UTC. Time now 2014-Dec-21 23:11 UTC.
Position N 32°06' W 117°38'.

Length 249 m; draft 8.3 m.

Type: Ship. MMSI: 636015177.

Date/timePositionNaut miles runAvg speedWind from/ knotsBaromVisibWave heightAir tempDewpointWater temp
2014-Dec-21 17:06N 32°06' W 117°38'611.5
2014-Dec-21 16:33N 32°11' W 117°40'1111.3
2014-Dec-21 15:33N 32°22' W 117°44'9 9.0
2014-Dec-21 14:33N 32°31' W 117°47'9 9.3
2014-Dec-21 13:34N 32°40' W 117°50'1110.9
2014-Dec-21 12:33N 32°50' W 117°54'1110.9
2014-Dec-21 11:33N 33°00' W 117°58'1110.8
2014-Dec-21 10:33N 33°11' W 118°03'1110.9
2014-Dec-21 09:33N 33°21' W 118°07'1110.6
2014-Dec-21 08:33N 33°31' W 118°11'13 1.6
2014-Dec-21 00:20N 33°44' W 118°12'2 2.3
2014-Dec-20 23:33N 33°45' W 118°13'1 0.6
2014-Dec-20 22:11N 33°46' W 118°13'0 0.0
2014-Dec-20 20:26N 33°46' W 118°13'0 0.0
2014-Dec-20 18:32N 33°46' W 118°13'0 0.0
2014-Dec-20 17:32N 33°46' W 118°13'0 0.0
2014-Dec-20 16:32N 33°46' W 118°13'0 0.0
2014-Dec-20 15:32N 33°46' W 118°13'0 0.0
2014-Dec-20 14:29N 33°46' W 118°13'0 0.0
2014-Dec-20 13:26N 33°46' W 118°13'0 0.0
2014-Dec-20 12:29N 33°46' W 118°13'0 0.0
2014-Dec-20 11:23N 33°46' W 118°13'0 0.0
2014-Dec-20 10:26N 33°46' W 118°13'0 0.0
2014-Dec-20 08:32N 33°46' W 118°13'0 0.0
2014-Dec-20 07:32N 33°46' W 118°13'0 0.0
2014-Dec-20 06:26N 33°46' W 118°13'0 0.0
2014-Dec-20 05:32N 33°46' W 118°13'0 0.0
2014-Dec-20 04:26N 33°46' W 118°13'0 0.0
2014-Dec-20 03:26N 33°46' W 118°13'0 0.0
2014-Dec-20 02:20N 33°46' W 118°13'0 0.0
2014-Dec-20 01:32N 33°46' W 118°13'0 0.0
2014-Dec-19 16:11N 33°46' W 118°13'0 0.0
2014-Dec-19 15:32N 33°46' W 118°13'0 0.0
2014-Dec-19 08:14N 33°46' W 118°13'0 0.0
2014-Dec-19 03:26N 33°46' W 118°13'0 0.0
2014-Dec-19 02:26N 33°46' W 118°13'0 0.0
2014-Dec-19 01:20N 33°46' W 118°13'0 0.0
2014-Dec-19 00:26N 33°46' W 118°13'0 0.0
2014-Dec-18 23:32N 33°46' W 118°13'0 0.0
2014-Dec-18 22:14N 33°46' W 118°13'0 0.0
2014-Dec-18 21:08N 33°46' W 118°13'0 0.0
2014-Dec-18 20:14N 33°46' W 118°13'0 0.0
2014-Dec-18 10:26N 33°46' W 118°13'0 0.0
2014-Dec-18 09:20N 33°46' W 118°13'0 0.0
2014-Dec-18 08:17N 33°46' W 118°13'0 0.0
2014-Dec-18 07:32N 33°46' W 118°13'0 0.0
2014-Dec-18 06:29N 33°46' W 118°13'0 0.0
2014-Dec-18 05:32N 33°46' W 118°13'0 0.0
2014-Dec-18 04:32N 33°46' W 118°13'0 0.0
2014-Dec-18 03:14N 33°46' W 118°13'0 0.0
2014-Dec-18 02:32N 33°46' W 118°13'0 0.0
2014-Dec-18 01:32N 33°46' W 118°13'0 0.0
2014-Dec-18 00:26N 33°46' W 118°13'0 0.0
2014-Dec-17 23:32N 33°46' W 118°13'0 0.1
2014-Dec-17 22:33N 33°46' W 118°13'3 3.2
2014-Dec-17 21:29N 33°44' W 118°10'0 0.0
2014-Dec-17 20:29N 33°44' W 118°10'0 0.1
2014-Dec-17 19:32N 33°44' W 118°10'0 0.1
2014-Dec-17 18:32N 33°44' W 118°10'0 0.1
2014-Dec-17 17:32N 33°44' W 118°10'0 0.1
2014-Dec-17 16:32N 33°44' W 118°10'0 0.1
2014-Dec-17 15:32N 33°44' W 118°10'0 0.1
2014-Dec-17 14:32N 33°44' W 118°10'0 0.1
2014-Dec-17 13:14N 33°44' W 118°10'0 0.1
2014-Dec-17 12:29N 33°44' W 118°10'0 0.0
2014-Dec-17 11:32N 33°44' W 118°10'0 0.0
2014-Dec-17 10:26N 33°44' W 118°10'0 0.0
2014-Dec-17 09:32N 33°44' W 118°10'0 0.1
2014-Dec-17 08:26N 33°44' W 118°10'0 0.1
2014-Dec-17 07:29N 33°44' W 118°10'0 0.0
2014-Dec-17 06:32N 33°44' W 118°10'0 0.1
2014-Dec-17 05:32N 33°44' W 118°10'0 0.0
2014-Dec-17 04:32N 33°44' W 118°10'0 0.1
2014-Dec-17 03:20N 33°44' W 118°10'0 0.0
2014-Dec-17 02:32N 33°44' W 118°10'0 0.0
2014-Dec-17 01:32N 33°44' W 118°10'0 0.0
2014-Dec-17 00:14N 33°44' W 118°10'0 0.0
2014-Dec-16 23:32N 33°44' W 118°10'0 0.0
2014-Dec-16 21:29N 33°44' W 118°10'0 0.0
2014-Dec-16 20:32N 33°44' W 118°10'0 0.0
2014-Dec-16 19:32N 33°44' W 118°10'0 0.1
2014-Dec-16 18:32N 33°44' W 118°10'0 0.0
2014-Dec-16 17:32N 33°44' W 118°10'0 0.1
2014-Dec-16 16:32N 33°44' W 118°10'0 0.0
2014-Dec-16 15:32N 33°44' W 118°10'0 0.1
2014-Dec-16 14:23N 33°44' W 118°10'0 0.0
2014-Dec-16 13:32N 33°44' W 118°10'0 0.0
2014-Dec-16 12:29N 33°44' W 118°10'0 0.0
2014-Dec-16 11:32N 33°44' W 118°10'0 0.1
2014-Dec-16 10:32N 33°44' W 118°10'0 0.0
2014-Dec-16 09:32N 33°44' W 118°10'0 0.0
2014-Dec-16 08:32N 33°44' W 118°10'0 0.1
2014-Dec-16 07:32N 33°44' W 118°10'0 0.1
2014-Dec-16 06:32N 33°44' W 118°10'0 0.0
2014-Dec-16 01:05N 33°44' W 118°10'0 0.0
2014-Dec-15 23:17N 33°44' W 118°10'0 0.1
2014-Dec-15 22:29N 33°44' W 118°10'0 0.0
2014-Dec-15 21:20N 33°44' W 118°10'0 0.1
2014-Dec-15 20:32N 33°44' W 118°10'0 0.0
2014-Dec-15 19:29N 33°44' W 118°10'0 0.1
2014-Dec-15 18:14N 33°44' W 118°10'0 0.0
2014-Dec-15 17:32N 33°44' W 118°10'0 0.0
2014-Dec-15 16:32N 33°44' W 118°10'0 0.1
2014-Dec-15 15:26N 33°44' W 118°10'0 0.1
2014-Dec-15 14:20N 33°44' W 118°10'0 0.0
2014-Dec-15 13:32N 33°44' W 118°10'0 0.0
2014-Dec-15 12:23N 33°44' W 118°10'0 0.1
2014-Dec-15 11:32N 33°44' W 118°10'0 0.0
2014-Dec-15 10:32N 33°44' W 118°10'0 0.0
2014-Dec-15 09:26N 33°44' W 118°10'0 0.0
2014-Dec-15 08:32N 33°44' W 118°10'0 0.1
2014-Dec-15 07:32N 33°44' W 118°10'0 0.1
2014-Dec-15 06:32N 33°44' W 118°10'0 0.0
2014-Dec-15 05:29N 33°44' W 118°10'0 0.0
2014-Dec-15 04:32N 33°44' W 118°10'0 0.0
2014-Dec-15 03:32N 33°44' W 118°10'0 0.0
2014-Dec-15 02:32N 33°44' W 118°10'0 0.0
2014-Dec-15 01:32N 33°44' W 118°10'0 0.0
2014-Dec-15 00:32N 33°44' W 118°10'0 0.0
2014-Dec-14 23:32N 33°44' W 118°10'0 0.0
2014-Dec-14 22:26N 33°44' W 118°10'0 0.0
2014-Dec-14 21:32N 33°44' W 118°10'0 0.0
2014-Dec-14 20:32N 33°44' W 118°10'0 0.1
2014-Dec-14 19:23N 33°44' W 118°10'0 0.1
2014-Dec-14 18:32N 33°44' W 118°10'0 0.1
2014-Dec-14 17:32N 33°44' W 118°10'0 0.1
2014-Dec-14 16:32N 33°44' W 118°10'0 0.0
2014-Dec-14 15:32N 33°44' W 118°10'0 0.1
2014-Dec-14 14:32N 33°44' W 118°10'0 0.0
2014-Dec-14 13:32N 33°44' W 118°10'0 0.0
2014-Dec-14 12:32N 33°44' W 118°10'0 0.0
2014-Dec-14 11:32N 33°44' W 118°10'0 0.0
2014-Dec-14 10:32N 33°44' W 118°10'0 0.0
2014-Dec-14 09:32N 33°44' W 118°10'0 0.0
2014-Dec-14 08:32N 33°44' W 118°10'0 0.1
2014-Dec-14 07:32N 33°44' W 118°10'0 0.1
2014-Dec-14 06:20N 33°44' W 118°10'0 0.1
2014-Dec-14 05:32N 33°44' W 118°10'0 0.1
2014-Dec-14 04:29N 33°44' W 118°10'0 0.0
2014-Dec-14 03:29N 33°44' W 118°10'0 0.0
2014-Dec-14 02:32N 33°44' W 118°10'0 0.0
2014-Dec-14 01:32N 33°44' W 118°10'0 0.0
2014-Dec-14 00:29N 33°44' W 118°10'0 0.0
2014-Dec-13 23:32N 33°44' W 118°10'0 0.0
2014-Dec-13 22:32N 33°44' W 118°10'0 0.0
2014-Dec-13 21:32N 33°44' W 118°10'0 0.0
2014-Dec-13 20:32N 33°44' W 118°10'0 0.0
2014-Dec-13 19:32N 33°44' W 118°10'0 0.0
2014-Dec-13 18:32N 33°44' W 118°10'0 0.0
2014-Dec-13 17:32N 33°44' W 118°10'0 0.0
2014-Dec-13 16:26N 33°44' W 118°10'0 0.0
2014-Dec-13 15:29N 33°44' W 118°10'0 0.1
2014-Dec-13 14:32N 33°44' W 118°10'0 0.0
2014-Dec-13 13:32N 33°44' W 118°10'0 0.0
2014-Dec-13 12:29N 33°44' W 118°10'0 0.0
2014-Dec-13 11:32N 33°44' W 118°10'0 0.1
2014-Dec-13 10:32N 33°44' W 118°10'0 0.0
2014-Dec-13 09:32N 33°44' W 118°10'0 0.0
2014-Dec-13 08:32N 33°44' W 118°10'0 0.0
2014-Dec-13 07:32N 33°44' W 118°10'0 0.0
2014-Dec-13 06:32N 33°44' W 118°10'0 0.0
2014-Dec-13 05:32N 33°44' W 118°10'0 0.0
2014-Dec-13 04:32N 33°44' W 118°10'0 0.0
2014-Dec-13 03:29N 33°44' W 118°10'0 0.0
2014-Dec-13 02:32N 33°44' W 118°10'0 0.0
2014-Dec-13 01:32N 33°44' W 118°10'0 0.0
2014-Dec-13 00:32N 33°44' W 118°10'0 0.0
2014-Dec-12 23:32N 33°44' W 118°10'0 0.0
2014-Dec-12 22:32N 33°44' W 118°10'0 0.0
2014-Dec-12 21:29N 33°44' W 118°10'0 0.0
2014-Dec-12 20:32N 33°44' W 118°10'0 0.0
2014-Dec-12 19:29N 33°44' W 118°10'0 0.2
2014-Dec-12 18:32N 33°44' W 118°10'0 0.1
2014-Dec-12 17:20N 33°44' W 118°10'0 0.0
2014-Dec-12 16:32N 33°44' W 118°10'0 0.1
2014-Dec-12 15:08N 33°44' W 118°10'0 0.1
2014-Dec-12 14:32N 33°44' W 118°10'0 0.1
2014-Dec-12 13:32N 33°44' W 118°10'0 0.0
2014-Dec-12 12:29N 33°44' W 118°10'0 0.2
2014-Dec-12 11:17N 33°44' W 118°10'0 0.0
2014-Dec-12 10:29N 33°44' W 118°10'0 0.0
2014-Dec-12 09:29N 33°44' W 118°10'0 0.0
2014-Dec-12 08:20N 33°44' W 118°10'0 0.0
2014-Dec-12 06:32N 33°44' W 118°10'0 0.0
2014-Dec-12 05:32N 33°44' W 118°10'0 0.1
2014-Dec-12 04:32N 33°44' W 118°10'0 0.1
2014-Dec-12 03:32N 33°44' W 118°10'0 0.1
2014-Dec-12 02:32N 33°44' W 118°10'0 0.0
2014-Dec-12 01:23N 33°44' W 118°10'0 0.1
2014-Dec-12 00:32N 33°44' W 118°10'0 0.0
2014-Dec-11 23:29N 33°44' W 118°10'0 0.0
2014-Dec-11 21:29N 33°44' W 118°10'0 0.0
2014-Dec-11 20:29N 33°44' W 118°10'0 0.0
2014-Dec-11 18:32N 33°44' W 118°10'0 0.0
2014-Dec-11 17:32N 33°44' W 118°10'  

Dump ship's entire track history